Time;durP1;ratioP1;P1;durP2;ratioP2;P2;SDS_P1;SDS_P2;PMS_P1;PMS_P2;Temp;Humidity;BMP_temperature;BMP_pressure;BME280_temperature;BME280_humidity;BME280_pressure;Samples;Min_cycle;Max_cycle;Signal;HPM_P1;HPM_P2
2021/12/07 00:00:07;;;;;;;2.00;1.50;;;3.40;99.90;;;;;;5049780;28;20485;-68
2021/12/07 00:02:34;;;;;;;4.80;1.63;;;3.40;99.90;;;;;;5052002;28;20929;-67
2021/12/07 00:05:01;;;;;;;4.57;2.13;;;3.50;99.90;;;;;;5050705;28;20475;-68
2021/12/07 00:07:28;;;;;;;2.97;2.60;;;3.60;99.90;;;;;;5041083;28;20462;-69
2021/12/07 00:09:55;;;;;;;3.63;1.90;;;3.70;99.90;;;;;;5052707;28;21055;-68
2021/12/07 00:12:22;;;;;;;2.43;2.17;;;3.90;99.90;;;;;;5056837;28;20478;-68
2021/12/07 00:14:55;;;;;;;3.20;2.53;;;4.10;99.90;;;;;;5039147;28;20628;-69
2021/12/07 00:17:22;;;;;;;3.53;2.07;;;4.20;99.90;;;;;;5052294;28;20451;-69
2021/12/07 00:19:49;;;;;;;5.53;2.60;;;4.30;99.90;;;;;;5052334;28;20414;-68
2021/12/07 00:22:18;;;;;;;2.47;1.93;;;4.30;99.90;;;;;;5054247;28;20447;-69
2021/12/07 00:24:44;;;;;;;1.87;1.50;;;4.30;99.90;;;;;;5042959;28;20478;-70
2021/12/07 00:27:12;;;;;;;2.60;2.40;;;4.30;99.90;;;;;;5048960;28;20546;-69
2021/12/07 00:29:40;;;;;;;2.73;2.47;;;4.40;99.90;;;;;;5058093;28;20860;-68
2021/12/07 00:32:21;;;;;;;3.63;2.00;;;4.30;99.90;;;;;;5040794;28;20441;-68
2021/12/07 00:35:12;;;;;;;10.07;2.80;;;4.50;99.90;;;;;;5027662;28;20465;-68
2021/12/07 00:37:43;;;;;;;2.33;1.87;;;4.60;99.90;;;;;;5041233;28;20441;-68
2021/12/07 00:40:12;;;;;;;2.30;1.50;;;4.70;99.90;;;;;;5050488;28;20938;-69
2021/12/07 00:42:40;;;;;;;4.57;2.63;;;4.70;99.90;;;;;;5046472;28;21048;-69
2021/12/07 00:45:09;;;;;;;2.50;1.80;;;4.70;99.90;;;;;;5055100;28;20487;-68
2021/12/07 00:47:37;;;;;;;4.47;2.33;;;4.70;99.90;;;;;;5053939;28;20764;-68
2021/12/07 00:50:05;;;;;;;2.60;2.30;;;4.80;99.90;;;;;;5049863;28;20491;-68
2021/12/07 00:52:32;;;;;;;2.07;1.87;;;4.70;99.90;;;;;;5049023;28;20475;-69
2021/12/07 00:54:59;;;;;;;1.67;1.43;;;4.70;99.90;;;;;;5050781;28;20476;-67
2021/12/07 00:57:26;;;;;;;2.50;1.73;;;4.60;99.90;;;;;;5038142;28;20656;-69
2021/12/07 00:59:53;;;;;;;2.50;1.53;;;4.40;99.90;;;;;;5050735;28;20950;-69
2021/12/07 01:02:21;;;;;;;1.70;1.30;;;4.30;99.90;;;;;;5051112;28;20900;-68
2021/12/07 01:04:57;;;;;;;1.90;1.60;;;4.40;99.90;;;;;;5053329;28;20548;-68
2021/12/07 01:07:49;;;;;;;2.03;1.23;;;4.40;99.90;;;;;;5032519;28;20622;-68
2021/12/07 01:26:56;;;;;;;2.70;1.47;;;4.40;99.90;;;;;;5055668;28;20433;-68
2021/12/07 01:29:25;;;;;;;1.50;1.40;;;4.40;99.90;;;;;;5043298;28;20433;-68
2021/12/07 01:32:01;;;;;;;1.27;0.90;;;4.40;99.90;;;;;;5048696;28;20880;-69
2021/12/07 01:34:54;;;;;;;2.30;1.40;;;4.30;99.90;;;;;;5050543;28;20736;-69
2021/12/07 01:37:35;;;;;;;2.83;2.27;;;4.30;99.90;;;;;;5060797;28;20487;-68
2021/12/07 01:40:26;;;;;;;1.30;1.20;;;4.40;99.90;;;;;;5048779;28;20438;-68
2021/12/07 01:46:10;;;;;;;1.90;1.20;;;4.30;99.90;;;;;;5035259;28;20506;-69
2021/12/07 01:51:47;;;;;;;2.83;2.00;;;4.30;99.90;;;;;;5052377;28;20405;-67
2021/12/07 01:59:49;;;;;;;5.33;2.90;;;4.10;99.90;;;;;;5049250;28;20992;-68
2021/12/07 02:02:19;;;;;;;2.33;1.17;;;4.20;99.90;;;;;;5045122;28;24934;-68
2021/12/07 02:04:47;;;;;;;1.87;1.70;;;4.20;99.90;;;;;;5047669;28;21076;-69
2021/12/07 02:07:14;;;;;;;1.90;1.70;;;4.20;99.90;;;;;;5054394;28;20434;-69
2021/12/07 02:09:47;;;;;;;3.43;2.50;;;4.20;99.90;;;;;;5045623;28;20425;-69
2021/12/07 02:12:14;;;;;;;2.80;1.70;;;4.20;99.90;;;;;;5048084;28;20434;-68
2021/12/07 02:14:43;;;;;;;2.13;1.80;;;4.20;99.90;;;;;;5047079;28;20456;-70
2021/12/07 02:17:13;;;;;;;2.60;1.87;;;4.10;99.90;;;;;;5041032;28;20487;-70
2021/12/07 02:19:40;;;;;;;3.80;2.30;;;3.80;99.90;;;;;;5056165;28;20546;-70
2021/12/07 02:22:10;;;;;;;2.53;2.23;;;3.80;99.90;;;;;;5048788;28;20425;-67
2021/12/07 02:24:37;;;;;;;3.50;2.27;;;3.90;99.90;;;;;;5044000;28;20441;-70
2021/12/07 02:27:05;;;;;;;2.13;1.90;;;3.70;99.90;;;;;;5044467;28;20850;-68
2021/12/07 02:29:32;;;;;;;2.50;2.30;;;3.60;99.90;;;;;;5052700;28;20446;-68
2021/12/07 02:32:01;;;;;;;3.57;2.53;;;3.60;99.90;;;;;;5057264;28;20955;-69
2021/12/07 02:34:28;;;;;;;3.77;1.60;;;3.50;99.90;;;;;;5056097;28;20454;-69
2021/12/07 02:36:56;;;;;;;5.70;2.33;;;3.50;99.90;;;;;;5052043;28;20457;-69
2021/12/07 02:39:33;;;;;;;4.87;2.63;;;3.40;99.90;;;;;;5052910;28;20504;-68
2021/12/07 02:42:01;;;;;;;4.33;2.90;;;3.40;99.90;;;;;;5064061;28;20937;-70
2021/12/07 02:44:28;;;;;;;5.40;3.93;;;3.40;99.90;;;;;;5049352;28;20509;-70
2021/12/07 02:46:55;;;;;;;3.10;1.93;;;3.40;99.90;;;;;;5053770;28;20933;-69
2021/12/07 02:49:22;;;;;;;3.13;2.63;;;3.40;99.90;;;;;;5059933;28;20502;-69
2021/12/07 02:51:49;;;;;;;4.67;3.13;;;3.50;99.90;;;;;;5048105;28;20433;-67
2021/12/07 02:54:17;;;;;;;5.40;3.70;;;3.50;99.90;;;;;;5051525;28;20478;-67
2021/12/07 02:56:46;;;;;;;4.30;1.57;;;3.40;99.90;;;;;;5049139;28;20430;-67
2021/12/07 02:59:13;;;;;;;6.30;4.23;;;3.40;99.90;;;;;;5053505;28;20504;-67
2021/12/07 03:01:46;;;;;;;8.73;5.60;;;3.40;99.90;;;;;;5041581;28;20463;-68
2021/12/07 03:04:21;;;;;;;6.00;3.20;;;3.40;99.90;;;;;;5043411;28;20765;-67
2021/12/07 03:07:00;;;;;;;8.40;3.47;;;3.40;99.90;;;;;;5069591;28;20581;-69
2021/12/07 03:26:07;;;;;;;8.40;4.70;;;3.60;99.90;;;;;;5053900;28;20812;-69
2021/12/07 03:28:38;;;;;;;4.60;3.10;;;3.60;99.90;;;;;;5059756;28;20455;-68
2021/12/07 03:31:06;;;;;;;9.30;4.57;;;3.70;99.90;;;;;;5051729;28;20509;-69
2021/12/07 03:33:34;;;;;;;6.10;5.00;;;3.70;99.90;;;;;;5048587;28;20454;-68
2021/12/07 03:36:01;;;;;;;9.53;3.80;;;3.70;99.90;;;;;;5044982;28;20589;-69
2021/12/07 03:38:28;;;;;;;6.30;4.83;;;3.80;99.90;;;;;;5058233;28;20513;-69
2021/12/07 03:40:55;;;;;;;7.43;3.63;;;3.80;99.90;;;;;;5063083;28;20460;-70
2021/12/07 03:43:22;;;;;;;6.00;5.23;;;3.90;99.90;;;;;;5056640;28;20524;-69
2021/12/07 03:45:51;;;;;;;3.33;2.70;;;3.80;99.90;;;;;;5050260;28;20511;-68
2021/12/07 03:48:19;;;;;;;5.93;5.03;;;3.90;99.90;;;;;;5061456;28;20432;-68
2021/12/07 03:50:46;;;;;;;6.97;3.50;;;3.90;99.90;;;;;;5059945;28;21522;-69
2021/12/07 03:53:14;;;;;;;9.90;3.90;;;4.00;99.90;;;;;;5043769;28;21007;-68
2021/12/07 03:55:42;;;;;;;9.37;3.90;;;4.00;99.90;;;;;;5045121;28;20484;-69
2021/12/07 03:58:09;;;;;;;8.97;5.00;;;3.90;99.90;;;;;;5060720;28;20463;-69
2021/12/07 04:00:39;;;;;;;12.33;4.77;;;3.90;99.90;;;;;;5047500;28;20438;-67
2021/12/07 04:03:12;;;;;;;7.27;4.63;;;4.00;99.90;;;;;;5034931;28;20501;-68
2021/12/07 04:05:45;;;;;;;8.53;4.20;;;4.00;99.90;;;;;;5030883;28;20475;-69
2021/12/07 04:08:13;;;;;;;5.67;3.03;;;4.10;99.90;;;;;;5055791;28;20459;-67
2021/12/07 04:10:40;;;;;;;11.20;6.90;;;4.20;99.90;;;;;;5045798;28;20487;-69
2021/12/07 04:13:08;;;;;;;7.23;5.37;;;4.20;99.90;;;;;;5065365;28;20909;-70
2021/12/07 04:15:36;;;;;;;13.57;7.83;;;4.20;99.90;;;;;;5044998;28;20573;-68
2021/12/07 04:18:04;;;;;;;7.23;6.00;;;4.10;99.90;;;;;;5048212;28;20446;-70
2021/12/07 04:20:32;;;;;;;14.23;7.70;;;4.10;99.90;;;;;;5037915;28;20429;-68
2021/12/07 04:22:59;;;;;;;12.77;6.60;;;4.00;99.90;;;;;;5047637;28;20422;-70
2021/12/07 04:25:26;;;;;;;10.00;5.60;;;4.00;99.90;;;;;;5047332;28;20640;-70
2021/12/07 04:27:55;;;;;;;10.60;5.43;;;4.20;99.90;;;;;;5043652;28;20444;-69
2021/12/07 04:30:25;;;;;;;10.10;6.57;;;4.20;99.90;;;;;;5031787;28;20563;-68
2021/12/07 04:32:52;;;;;;;14.57;8.60;;;4.30;99.90;;;;;;5045423;28;20436;-70
2021/12/07 04:35:20;;;;;;;11.33;5.30;;;4.30;99.90;;;;;;5042686;28;20526;-68
2021/12/07 04:37:49;;;;;;;9.00;6.90;;;4.40;99.90;;;;;;5051341;28;20503;-69
2021/12/07 04:40:19;;;;;;;14.53;6.37;;;4.50;99.90;;;;;;5058103;28;20485;-68
2021/12/07 04:42:46;;;;;;;8.63;6.77;;;4.40;99.90;;;;;;5062746;28;20461;-68
2021/12/07 04:45:24;;;;;;;11.90;8.70;;;4.40;99.90;;;;;;5047110;28;20457;-69
2021/12/07 04:48:03;;;;;;;10.07;6.33;;;4.50;99.90;;;;;;5054870;28;20448;-68
2021/12/07 04:58:44;;;;;;;9.37;7.13;;;4.50;99.90;;;;;;5038148;28;20458;-69
2021/12/07 05:01:12;;;;;;;11.17;7.27;;;4.50;99.90;;;;;;5042988;28;20479;-68
2021/12/07 05:03:40;;;;;;;11.33;7.50;;;4.50;99.90;;;;;;5008065;28;20498;-68
2021/12/07 05:06:11;;;;;;;9.80;5.23;;;4.40;99.90;;;;;;5001687;28;20647;-67
2021/12/07 05:08:43;;;;;;;10.43;6.10;;;4.30;99.90;;;;;;5037353;28;20572;-67
2021/12/07 05:11:34;;;;;;;13.73;5.60;;;4.30;99.90;;;;;;5044823;28;20521;-68
2021/12/07 05:14:15;;;;;;;11.90;7.13;;;4.40;99.90;;;;;;5049445;28;20585;-68
2021/12/07 05:16:58;;;;;;;9.33;7.07;;;4.30;99.90;;;;;;5048066;28;20462;-68
2021/12/07 05:38:51;;;;;;;10.63;7.13;;;4.70;99.90;;;;;;4983444;28;20442;-68
2021/12/07 05:41:19;;;;;;;13.20;7.53;;;4.80;99.90;;;;;;5026200;28;21065;-67
2021/12/07 05:43:47;;;;;;;10.37;5.70;;;4.70;99.90;;;;;;5047753;28;21283;-66
2021/12/07 05:46:14;;;;;;;7.83;5.10;;;4.60;99.90;;;;;;5044828;28;21205;-67
2021/12/07 05:48:41;;;;;;;10.20;5.63;;;4.60;99.90;;;;;;5039552;28;20524;-67
2021/12/07 05:51:08;;;;;;;9.10;6.00;;;4.60;99.90;;;;;;5038322;28;20892;-67
2021/12/07 05:53:35;;;;;;;22.50;5.70;;;4.60;99.90;;;;;;5038438;28;20539;-67
2021/12/07 05:56:03;;;;;;;4.93;4.43;;;4.50;99.90;;;;;;5047529;28;20985;-66
2021/12/07 05:58:31;;;;;;;13.50;5.83;;;4.60;99.90;;;;;;5043905;28;20938;-67
2021/12/07 06:00:58;;;;;;;21.33;5.03;;;4.50;99.90;;;;;;5059549;28;20607;-67
2021/12/07 06:03:27;;;;;;;16.40;6.50;;;4.50;99.90;;;;;;5068924;28;20486;-68
2021/12/07 06:05:55;;;;;;;13.63;6.00;;;4.60;99.90;;;;;;5068102;28;20563;-67
2021/12/07 06:08:22;;;;;;;8.13;3.80;;;4.50;99.90;;;;;;5063598;28;20468;-67
2021/12/07 06:10:49;;;;;;;7.23;5.03;;;4.60;99.90;;;;;;5068628;28;20445;-67
2021/12/07 06:13:16;;;;;;;8.33;3.10;;;4.60;99.90;;;;;;5063316;28;20547;-68
2021/12/07 06:15:45;;;;;;;10.33;4.60;;;4.60;99.90;;;;;;5069957;28;21021;-70
2021/12/07 06:18:13;;;;;;;13.40;6.30;;;4.60;99.90;;;;;;5072772;28;20485;-68
2021/12/07 06:20:41;;;;;;;9.47;4.97;;;4.70;99.90;;;;;;5061829;28;20437;-68
2021/12/07 06:23:09;;;;;;;10.20;4.67;;;4.70;99.90;;;;;;5076217;28;20429;-68
2021/12/07 06:25:37;;;;;;;16.43;5.10;;;4.70;99.90;;;;;;5067120;28;20500;-69
2021/12/07 06:28:04;;;;;;;12.63;3.77;;;4.80;99.90;;;;;;5052328;28;20974;-68
2021/12/07 06:30:31;;;;;;;9.90;5.80;;;4.80;99.90;;;;;;5063010;28;20483;-68
2021/12/07 06:33:00;;;;;;;10.67;5.90;;;4.90;99.90;;;;;;5067125;28;20541;-68
2021/12/07 06:35:27;;;;;;;11.13;4.83;;;4.90;99.90;;;;;;5063366;28;20492;-67
2021/12/07 06:37:54;;;;;;;9.80;4.47;;;4.90;99.90;;;;;;5066227;28;20516;-68
2021/12/07 06:40:21;;;;;;;9.97;7.20;;;4.90;99.90;;;;;;5068320;28;21084;-68
2021/12/07 06:42:48;;;;;;;13.83;6.70;;;5.00;99.90;;;;;;5069504;28;20901;-68
2021/12/07 06:45:15;;;;;;;14.70;7.57;;;4.90;99.90;;;;;;5063452;28;20906;-67
2021/12/07 06:47:42;;;;;;;13.03;5.30;;;5.00;99.90;;;;;;5063250;28;20456;-68
2021/12/07 06:50:12;;;;;;;16.70;7.57;;;5.10;99.90;;;;;;5066167;28;20454;-68
2021/12/07 06:52:39;;;;;;;13.03;5.03;;;5.10;99.90;;;;;;5068995;28;21000;-68
2021/12/07 06:55:07;;;;;;;8.53;4.57;;;5.00;99.90;;;;;;5065500;28;20895;-68
2021/12/07 06:57:34;;;;;;;11.87;5.30;;;5.10;99.90;;;;;;5061522;28;20429;-68
2021/12/07 07:00:01;;;;;;;9.57;5.43;;;5.10;99.90;;;;;;5071642;28;20534;-67
2021/12/07 07:02:28;;;;;;;8.17;7.20;;;5.20;99.90;;;;;;5067707;28;20442;-68
2021/12/07 07:04:56;;;;;;;9.60;5.20;;;5.10;99.90;;;;;;5047524;28;20488;-67
2021/12/07 07:07:24;;;;;;;9.20;4.93;;;5.00;99.90;;;;;;5066383;28;20521;-68
2021/12/07 07:09:51;;;;;;;9.50;4.03;;;5.00;99.90;;;;;;5058398;28;20501;-68
2021/12/07 07:12:19;;;;;;;14.40;4.77;;;5.00;99.90;;;;;;5066457;28;20995;-68
2021/12/07 07:14:46;;;;;;;8.93;5.50;;;5.00;99.90;;;;;;5063766;28;20949;-68
2021/12/07 07:17:13;;;;;;;5.47;3.37;;;5.00;99.90;;;;;;5064602;28;20533;-70
2021/12/07 07:19:40;;;;;;;3.33;3.00;;;5.10;99.90;;;;;;5060301;28;20544;-68
2021/12/07 07:22:07;;;;;;;11.80;5.40;;;5.00;99.90;;;;;;5063232;28;20489;-68
2021/12/07 07:24:37;;;;;;;5.67;3.53;;;4.90;99.90;;;;;;5065867;28;20491;-67
2021/12/07 07:27:04;;;;;;;5.30;4.03;;;5.00;99.90;;;;;;5062822;28;20795;-68
2021/12/07 07:29:31;;;;;;;12.03;4.40;;;5.00;99.90;;;;;;5066304;28;20904;-68
2021/12/07 07:31:58;;;;;;;9.73;5.17;;;5.00;99.90;;;;;;5066010;28;20607;-68
2021/12/07 07:34:26;;;;;;;22.87;6.93;;;5.10;99.90;;;;;;5059397;28;20433;-68
2021/12/07 07:36:53;;;;;;;5.70;3.90;;;5.10;99.90;;;;;;5058502;28;20457;-68
2021/12/07 07:39:20;;;;;;;6.33;4.97;;;5.20;99.90;;;;;;5067587;28;20488;-68
2021/12/07 07:41:49;;;;;;;5.73;2.97;;;5.20;99.90;;;;;;5067623;28;20443;-68
2021/12/07 07:44:16;;;;;;;11.77;5.60;;;5.30;99.90;;;;;;5048325;28;20917;-68
2021/12/07 07:46:43;;;;;;;8.23;3.97;;;5.20;99.90;;;;;;5062810;28;20483;-68
2021/12/07 07:49:10;;;;;;;10.17;5.43;;;5.20;99.90;;;;;;5063643;28;20506;-68
2021/12/07 07:51:37;;;;;;;9.93;4.80;;;5.20;99.90;;;;;;5055582;28;20541;-67
2021/12/07 07:54:05;;;;;;;4.87;3.60;;;5.10;99.90;;;;;;5069257;28;20433;-67
2021/12/07 07:56:33;;;;;;;8.67;5.03;;;5.00;99.90;;;;;;5058702;28;20858;-68
2021/12/07 07:59:01;;;;;;;8.37;4.90;;;4.90;99.90;;;;;;5075540;28;20508;-67
2021/12/07 08:01:30;;;;;;;5.70;4.07;;;4.90;99.90;;;;;;5064336;28;20926;-67
2021/12/07 08:03:57;;;;;;;12.00;3.40;;;4.70;99.90;;;;;;5066088;28;20433;-68
2021/12/07 08:06:24;;;;;;;7.13;4.23;;;4.70;99.90;;;;;;5061252;28;20833;-68
2021/12/07 08:08:51;;;;;;;7.60;4.27;;;4.80;99.90;;;;;;5062733;28;20470;-68
2021/12/07 08:11:18;;;;;;;4.67;3.50;;;4.90;99.90;;;;;;5059045;28;20470;-68
2021/12/07 08:13:45;;;;;;;7.47;4.77;;;5.00;99.90;;;;;;5057936;28;20429;-68
2021/12/07 08:16:16;;;;;;;6.23;4.53;;;5.00;99.90;;;;;;5051795;28;20557;-68
2021/12/07 08:18:44;;;;;;;11.43;2.43;;;5.00;99.90;;;;;;5061430;28;20437;-67
2021/12/07 08:21:14;;;;;;;4.63;4.20;;;5.00;99.90;;;;;;5063283;28;20462;-68
2021/12/07 08:23:41;;;;;;;12.30;3.87;;;5.10;99.90;;;;;;5057950;28;20443;-68
2021/12/07 08:26:11;;;;;;;8.10;3.10;;;5.10;99.90;;;;;;5054196;28;20566;-68
2021/12/07 08:28:38;;;;;;;6.70;3.23;;;5.20;99.90;;;;;;5063398;28;20584;-68
2021/12/07 08:31:06;;;;;;;4.17;3.47;;;5.30;99.90;;;;;;5065691;28;20554;-68
2021/12/07 08:33:34;;;;;;;2.10;1.90;;;5.40;99.90;;;;;;5061823;28;20550;-68
2021/12/07 08:36:02;;;;;;;4.80;2.30;;;5.40;99.90;;;;;;5060709;28;20549;-67
2021/12/07 08:38:30;;;;;;;6.70;5.90;;;5.40;99.90;;;;;;5065672;28;20442;-67
2021/12/07 08:40:58;;;;;;;6.30;3.93;;;5.30;99.90;;;;;;5064111;28;20474;-68
2021/12/07 08:43:27;;;;;;;7.77;4.17;;;5.40;99.90;;;;;;5058283;28;20470;-68
2021/12/07 08:45:55;;;;;;;11.20;5.60;;;5.30;99.90;;;;;;5060654;28;20578;-68
2021/12/07 08:48:23;;;;;;;9.10;5.30;;;5.40;99.90;;;;;;5062642;28;20446;-68
2021/12/07 08:50:51;;;;;;;8.60;6.17;;;5.40;99.90;;;;;;5065211;28;20439;-68
2021/12/07 08:53:20;;;;;;;7.50;5.30;;;5.40;99.90;;;;;;5052061;28;20491;-68
2021/12/07 09:01:32;;;;;;;6.17;4.80;;;5.10;99.90;;;;;;4986577;28;20450;-68
2021/12/07 09:04:00;;;;;;;5.63;3.83;;;5.10;99.90;;;;;;5047153;28;20478;-68
2021/12/07 09:06:30;;;;;;;21.33;7.40;;;5.20;99.90;;;;;;5066211;28;20910;-67
2021/12/07 09:08:57;;;;;;;15.60;6.40;;;5.30;99.90;;;;;;5068193;28;20493;-68
2021/12/07 09:11:24;;;;;;;14.00;6.53;;;5.40;99.90;;;;;;5063067;28;20488;-67
2021/12/07 09:13:51;;;;;;;17.30;6.93;;;5.40;99.90;;;;;;5064783;28;20503;-68
2021/12/07 09:16:20;;;;;;;9.37;5.50;;;5.50;99.90;;;;;;5062099;28;20460;-68
2021/12/07 09:18:47;;;;;;;18.63;8.10;;;5.60;99.90;;;;;;5068065;28;20466;-68
2021/12/07 09:21:16;;;;;;;14.57;6.97;;;5.60;99.90;;;;;;5059023;28;20443;-67
2021/12/07 09:23:45;;;;;;;16.30;7.20;;;5.60;99.90;;;;;;5064102;28;20461;-66
2021/12/07 09:26:12;;;;;;;5.97;5.43;;;5.80;99.90;;;;;;5048587;28;20470;-67
2021/12/07 09:28:41;;;;;;;10.27;6.37;;;5.90;99.90;;;;;;5064412;28;20464;-68
2021/12/07 09:31:10;;;;;;;8.00;4.97;;;5.90;99.90;;;;;;5061480;28;20989;-68
2021/12/07 09:33:37;;;;;;;21.43;5.27;;;5.80;99.90;;;;;;5055374;28;20845;-68
2021/12/07 09:36:05;;;;;;;17.50;7.60;;;5.80;99.90;;;;;;5064903;28;20465;-68
2021/12/07 09:38:32;;;;;;;7.60;4.27;;;5.70;99.90;;;;;;5060536;28;20505;-68
2021/12/07 09:41:01;;;;;;;10.87;9.07;;;5.40;99.90;;;;;;5066016;28;20518;-67
2021/12/07 09:43:28;;;;;;;20.80;8.87;;;5.40;99.90;;;;;;5066116;28;20786;-68
2021/12/07 09:45:55;;;;;;;9.00;6.33;;;5.50;99.90;;;;;;5061166;28;20493;-68
2021/12/07 09:48:22;;;;;;;6.87;6.40;;;5.60;99.90;;;;;;5064137;28;20558;-68
2021/12/07 09:50:51;;;;;;;8.40;5.73;;;5.80;99.90;;;;;;5062095;28;20482;-68
2021/12/07 09:53:19;;;;;;;9.77;4.23;;;5.90;99.90;;;;;;5064885;28;20442;-68
2021/12/07 09:55:47;;;;;;;11.23;5.23;;;6.10;99.90;;;;;;5065547;28;20535;-68
2021/12/07 09:58:17;;;;;;;11.47;7.10;;;6.10;99.90;;;;;;5070874;28;20963;-68
2021/12/07 10:00:45;;;;;;;7.97;5.27;;;6.00;99.90;;;;;;5068481;28;20479;-68
2021/12/07 10:03:13;;;;;;;12.43;4.70;;;6.00;99.90;;;;;;5051735;28;20459;-67
2021/12/07 10:05:41;;;;;;;9.63;6.03;;;6.30;99.90;;;;;;5054929;28;21009;-68
2021/12/07 10:08:09;;;;;;;6.43;3.93;;;6.40;99.90;;;;;;5064732;28;20447;-68
2021/12/07 10:10:38;;;;;;;16.23;6.33;;;6.40;99.90;;;;;;5059475;28;20517;-68
2021/12/07 10:13:08;;;;;;;12.27;5.47;;;6.40;99.90;;;;;;5058421;28;20546;-69
2021/12/07 10:15:37;;;;;;;9.67;5.53;;;6.30;99.90;;;;;;5058913;28;20482;-70
2021/12/07 10:18:07;;;;;;;4.40;4.00;;;6.10;99.90;;;;;;5058397;28;20878;-69
2021/12/07 10:20:40;;;;;;;4.90;3.57;;;6.00;99.90;;;;;;5062284;28;20425;-69
2021/12/07 10:23:33;;;;;;;9.90;4.60;;;6.00;99.90;;;;;;5062272;28;20458;-67
2021/12/07 10:26:05;;;;;;;12.63;4.20;;;6.00;99.90;;;;;;5055181;28;20476;-68
2021/12/07 10:28:36;;;;;;;6.13;4.50;;;6.10;99.90;;;;;;5058866;28;20501;-68
2021/12/07 10:31:19;;;;;;;7.73;5.30;;;6.30;99.90;;;;;;5060824;28;20503;-70
2021/12/07 10:33:50;;;;;;;6.73;4.77;;;6.10;99.90;;;;;;5055438;28;20509;-70
2021/12/07 10:36:22;;;;;;;4.60;3.23;;;6.10;99.90;;;;;;5061479;28;20479;-69
2021/12/07 10:38:54;;;;;;;9.90;3.70;;;6.10;99.90;;;;;;5058615;28;20556;-70
2021/12/07 10:41:24;;;;;;;8.53;2.87;;;6.10;99.90;;;;;;5061274;28;20834;-70
2021/12/07 10:43:55;;;;;;;7.80;3.30;;;6.10;99.90;;;;;;5059971;28;20437;-68
2021/12/07 10:46:42;;;;;;;7.00;3.47;;;6.30;99.90;;;;;;5058226;28;21782;-69
2021/12/07 10:49:27;;;;;;;8.03;3.20;;;6.40;99.90;;;;;;5066014;28;20506;-68
2021/12/07 10:52:08;;;;;;;2.60;2.20;;;6.30;99.90;;;;;;5061156;28;20882;-68
2021/12/07 10:54:40;;;;;;;5.90;3.40;;;6.30;99.90;;;;;;5061036;28;20478;-68
2021/12/07 10:57:09;;;;;;;8.83;3.83;;;6.30;99.90;;;;;;5061269;28;20444;-68
2021/12/07 10:59:37;;;;;;;2.70;2.50;;;6.30;99.90;;;;;;5067596;28;20449;-68
2021/12/07 11:02:16;;;;;;;6.77;3.20;;;6.30;99.90;;;;;;5070237;28;20477;-69
2021/12/07 11:04:44;;;;;;;5.50;3.83;;;6.30;99.90;;;;;;5051469;28;21971;-69
2021/12/07 11:07:18;;;;;;;14.13;3.03;;;6.50;99.90;;;;;;5059539;28;20495;-68
2021/12/07 11:09:51;;;;;;;3.03;2.57;;;6.60;99.90;;;;;;5071730;28;20972;-68
2021/12/07 11:12:20;;;;;;;8.53;3.90;;;6.50;99.90;;;;;;5060904;28;20516;-69
2021/12/07 11:14:51;;;;;;;8.10;2.33;;;6.50;99.90;;;;;;5071337;28;20501;-68
2021/12/07 11:17:22;;;;;;;3.47;3.17;;;6.40;99.90;;;;;;5068292;28;20528;-69
2021/12/07 11:19:49;;;;;;;5.40;1.90;;;6.50;99.90;;;;;;5061142;28;20454;-68
2021/12/07 11:22:19;;;;;;;3.57;3.07;;;6.70;99.90;;;;;;5067182;28;20494;-68
2021/12/07 11:24:47;;;;;;;2.93;2.30;;;6.90;99.90;;;;;;5056348;28;20543;-69
2021/12/07 11:30:05;;;;;;;2.43;2.20;;;7.10;99.90;;;;;;5065296;28;20457;-68
2021/12/07 11:32:33;;;;;;;5.97;3.03;;;7.40;99.90;;;;;;5066347;28;20418;-69
2021/12/07 11:35:17;;;;;;;8.67;2.83;;;7.50;99.90;;;;;;5054075;28;20474;-69
2021/12/07 11:37:45;;;;;;;3.03;2.57;;;7.60;99.90;;;;;;5060039;28;20446;-67
2021/12/07 11:40:13;;;;;;;10.77;2.93;;;7.90;99.90;;;;;;5064711;28;20518;-67
2021/12/07 11:42:42;;;;;;;7.53;2.87;;;8.00;99.90;;;;;;5069263;28;20507;-67
2021/12/07 11:45:16;;;;;;;12.70;2.87;;;8.00;99.90;;;;;;5054216;28;20938;-68
2021/12/07 11:47:47;;;;;;;1.93;1.73;;;7.90;99.90;;;;;;5069693;28;20413;-68
2021/12/07 11:50:22;;;;;;;4.37;2.40;;;7.90;99.90;;;;;;5060237;28;20512;-66
2021/12/07 11:52:52;;;;;;;7.07;2.63;;;7.80;99.90;;;;;;5065595;28;20489;-67
2021/12/07 11:55:19;;;;;;;4.37;2.67;;;7.60;99.90;;;;;;5063831;28;20836;-68
2021/12/07 11:57:47;;;;;;;2.73;2.43;;;7.70;99.90;;;;;;5061601;28;20472;-67
2021/12/07 12:00:18;;;;;;;2.93;2.20;;;7.90;99.90;;;;;;5061626;28;20494;-67
2021/12/07 12:02:46;;;;;;;2.40;2.20;;;7.90;99.90;;;;;;5057068;28;20867;-68
2021/12/07 12:05:14;;;;;;;3.87;2.60;;;8.00;99.90;;;;;;5067614;28;20487;-67
2021/12/07 12:07:44;;;;;;;8.77;3.17;;;8.00;99.90;;;;;;5061408;28;20459;-68
2021/12/07 12:10:13;;;;;;;11.50;2.50;;;8.20;99.90;;;;;;5059374;28;20458;-68
2021/12/07 12:12:54;;;;;;;7.63;3.23;;;8.40;99.90;;;;;;5061578;28;20488;-68
2021/12/07 12:15:46;;;;;;;4.80;3.40;;;8.40;99.90;;;;;;5058060;28;20482;-67
2021/12/07 12:18:23;;;;;;;12.37;3.77;;;8.40;99.90;;;;;;5066855;28;20905;-67
2021/12/07 12:21:07;;;;;;;1.50;1.30;;;8.40;99.90;;;;;;5066167;28;20426;-67
2021/12/07 12:23:42;;;;;;;10.97;3.30;;;8.00;99.90;;;;;;5048932;28;20462;-67
2021/12/07 12:26:12;;;;;;;2.77;2.53;;;7.80;99.90;;;;;;5053253;28;20485;-68
2021/12/07 12:28:42;;;;;;;1.80;1.70;;;7.90;99.90;;;;;;5058140;28;20496;-68
2021/12/07 12:31:12;;;;;;;1.43;1.00;;;7.80;99.90;;;;;;5059771;28;20539;-67
2021/12/07 12:33:53;;;;;;;13.50;5.17;;;7.70;99.90;;;;;;5061249;28;20466;-66
2021/12/07 12:36:21;;;;;;;4.27;2.00;;;7.50;99.90;;;;;;5060699;28;20506;-68
2021/12/07 12:38:57;;;;;;;7.00;3.30;;;7.40;99.90;;;;;;5058491;28;20464;-68
2021/12/07 12:41:25;;;;;;;6.50;2.83;;;7.40;99.90;;;;;;5062251;28;20858;-68
2021/12/07 12:43:55;;;;;;;7.23;3.57;;;7.40;99.90;;;;;;5058174;28;21036;-69
2021/12/07 12:46:24;;;;;;;2.60;2.10;;;7.70;99.90;;;;;;5063304;28;20497;-68
2021/12/07 12:48:55;;;;;;;1.87;1.30;;;7.90;99.90;;;;;;5063445;28;20553;-68
2021/12/07 12:51:23;;;;;;;5.37;2.40;;;7.90;99.90;;;;;;5063392;28;20947;-68
2021/12/07 12:53:52;;;;;;;15.70;2.57;;;8.00;99.90;;;;;;5057297;28;20503;-68
2021/12/07 12:56:23;;;;;;;5.37;3.20;;;7.80;99.90;;;;;;5058561;28;20511;-68
2021/12/07 12:58:51;;;;;;;6.97;1.73;;;7.60;99.90;;;;;;5064174;28;20542;-68
2021/12/07 13:01:26;;;;;;;2.53;2.20;;;7.50;99.90;;;;;;5054161;28;20508;-67
2021/12/07 13:04:07;;;;;;;2.77;2.10;;;7.50;99.90;;;;;;5066033;28;20430;-67
2021/12/07 13:07:05;;;;;;;5.00;3.03;;;7.90;99.90;;;;;;5041256;28;20565;-68
2021/12/07 13:09:42;;;;;;;2.70;1.57;;;8.40;99.90;;;;;;5059040;28;21135;-68
2021/12/07 13:12:13;;;;;;;2.70;2.20;;;8.80;99.90;;;;;;5060713;28;20459;-68
2021/12/07 13:14:53;;;;;;;2.80;1.87;;;9.10;99.90;;;;;;5060121;28;20475;-68
2021/12/07 13:17:25;;;;;;;6.07;1.47;;;9.30;99.90;;;;;;5058881;28;20530;-68
2021/12/07 13:20:25;;;;;;;9.70;1.77;;;9.90;99.90;;;;;;5058816;28;20487;-68
2021/12/07 13:22:56;;;;;;;8.80;3.07;;;10.10;99.90;;;;;;5047510;28;20464;-69
2021/12/07 13:25:26;;;;;;;2.70;2.03;;;10.70;99.90;;;;;;5061346;28;20515;-68
2021/12/07 13:28:26;;;;;;;5.90;2.80;;;10.20;99.90;;;;;;5057668;28;20490;-68
2021/12/07 13:31:05;;;;;;;3.60;2.37;;;10.50;99.90;;;;;;5059351;28;20489;-68
2021/12/07 13:33:38;;;;;;;5.00;4.60;;;10.60;99.90;;;;;;5062791;28;20499;-68
2021/12/07 13:36:31;;;;;;;5.40;3.00;;;10.40;99.90;;;;;;5057897;28;20513;-69
2021/12/07 13:39:06;;;;;;;4.87;3.30;;;10.40;99.90;;;;;;5061746;28;20460;-68
2021/12/07 13:41:33;;;;;;;4.40;3.03;;;10.00;99.90;;;;;;5063961;28;20487;-68
2021/12/07 13:44:00;;;;;;;5.43;2.60;;;10.00;99.90;;;;;;5049929;28;21051;-68
2021/12/07 13:46:29;;;;;;;6.70;3.63;;;9.80;99.90;;;;;;5055515;28;20519;-68
2021/12/07 13:49:07;;;;;;;9.10;3.87;;;9.50;99.90;;;;;;5059373;28;20444;-68
2021/12/07 13:51:36;;;;;;;12.93;4.30;;;9.30;99.90;;;;;;5061026;28;20771;-68
2021/12/07 13:54:04;;;;;;;6.00;3.43;;;9.00;99.90;;;;;;5064637;28;21020;-69
2021/12/07 13:56:34;;;;;;;14.33;4.30;;;8.60;99.90;;;;;;5070741;28;20477;-67
2021/12/07 13:59:06;;;;;;;5.30;2.50;;;8.60;99.90;;;;;;5064137;28;20450;-68
2021/12/07 14:01:36;;;;;;;2.60;1.90;;;8.30;99.90;;;;;;5061767;28;20517;-68
2021/12/07 14:04:05;;;;;;;9.00;3.07;;;8.10;99.90;;;;;;5065381;28;20794;-68
2021/12/07 14:06:33;;;;;;;7.47;3.00;;;7.90;99.90;;;;;;5069819;28;20499;-68
2021/12/07 14:09:06;;;;;;;5.40;4.00;;;7.80;99.90;;;;;;5062888;28;20476;-67
2021/12/07 14:11:34;;;;;;;14.97;5.97;;;7.80;99.90;;;;;;5063533;28;20574;-67
2021/12/07 14:14:02;;;;;;;8.23;3.57;;;7.70;99.90;;;;;;5064075;28;20520;-68
2021/12/07 14:16:29;;;;;;;4.50;3.03;;;7.60;99.90;;;;;;5063123;28;20449;-67
2021/12/07 14:18:56;;;;;;;18.47;2.70;;;7.40;99.90;;;;;;5055151;28;20487;-67
2021/12/07 14:21:23;;;;;;;8.70;2.33;;;7.30;99.90;;;;;;5066488;28;20549;-67
2021/12/07 14:23:57;;;;;;;10.93;2.40;;;7.20;99.90;;;;;;5061514;28;20457;-67
2021/12/07 14:26:26;;;;;;;4.13;1.83;;;7.10;99.90;;;;;;5066121;28;20871;-67
2021/12/07 14:28:58;;;;;;;2.67;2.10;;;7.00;99.90;;;;;;5070237;28;20435;-68